createdAt,value
2023-02-17T00:01:22.319Z,58.95
2023-02-17T00:06:29.232Z,59.10
2023-02-17T00:11:32.165Z,59.08
2023-02-17T00:16:36.355Z,59.25
2023-02-17T00:21:39.187Z,59.20
2023-02-17T00:26:41.928Z,59.33
2023-02-17T00:31:46.983Z,59.72
2023-02-17T00:36:49.834Z,59.42
2023-02-17T00:41:52.650Z,59.64
2023-02-17T00:46:58.161Z,60.03
2023-02-17T00:52:02.024Z,60.05
2023-02-17T00:57:04.997Z,60.22
2023-02-17T01:02:09.546Z,60.15
2023-02-17T01:12:15.713Z,60.54
2023-02-17T01:17:19.794Z,60.63
2023-02-17T01:22:22.600Z,60.59
2023-02-17T01:27:25.345Z,60.88
2023-02-17T01:32:31.180Z,60.91
2023-02-17T01:37:34.294Z,61.00
2023-02-17T01:42:37.071Z,60.93
2023-02-17T01:47:41.585Z,61.17
2023-02-17T01:52:45.221Z,61.34
2023-02-17T01:57:49.598Z,61.45
2023-02-17T02:02:54.404Z,61.55
2023-02-17T02:07:58.228Z,61.84
2023-02-17T02:13:01.189Z,61.87
2023-02-17T02:18:22.049Z,62.13
2023-02-17T02:23:54.265Z,62.12
2023-02-17T02:29:25.626Z,62.03
2023-02-17T02:34:35.503Z,62.44
2023-02-17T02:39:43.715Z,62.48
2023-02-17T02:44:46.843Z,62.48
2023-02-17T02:49:51.001Z,62.62
2023-02-17T02:55:01.498Z,62.66
2023-02-17T03:00:16.217Z,62.64
2023-02-17T03:05:31.043Z,62.82
2023-02-17T03:10:33.891Z,62.98
2023-02-17T03:15:36.828Z,63.06
2023-02-17T03:20:46.825Z,63.18
2023-02-17T03:25:49.574Z,63.09
2023-02-17T03:30:52.397Z,63.07
2023-02-17T03:35:56.490Z,63.08
2023-02-17T03:40:59.254Z,63.10
2023-02-17T03:46:02.372Z,63.04
2023-02-17T03:51:13.391Z,63.22
2023-02-17T03:56:16.402Z,63.38
2023-02-17T04:01:19.181Z,63.65
2023-02-17T04:06:23.430Z,63.60
2023-02-17T04:11:26.497Z,63.61
2023-02-17T04:16:29.391Z,63.72
2023-02-17T04:21:33.769Z,63.72
2023-02-17T04:26:36.548Z,63.98
2023-02-17T04:31:39.503Z,63.76
2023-02-17T04:36:44.411Z,63.92
2023-02-17T04:41:47.387Z,63.88
2023-02-17T04:46:50.160Z,63.46
2023-02-17T04:51:54.295Z,63.31
2023-02-17T04:56:57.050Z,63.21
2023-02-17T05:01:59.976Z,63.00
2023-02-17T05:07:04.597Z,62.82
2023-02-17T05:12:08.240Z,62.92
2023-02-17T05:17:11.119Z,62.78
2023-02-17T05:22:15.271Z,62.76
2023-02-17T05:27:18.041Z,62.70
2023-02-17T05:32:20.812Z,62.70
2023-02-17T05:37:24.957Z,62.66
2023-02-17T05:42:28.803Z,62.65
2023-02-17T05:47:31.612Z,62.61
2023-02-17T05:52:35.702Z,62.59
2023-02-17T05:57:38.489Z,62.37
2023-02-17T06:02:41.292Z,62.38
2023-02-17T06:07:45.400Z,62.51
2023-02-17T06:12:48.333Z,62.21
2023-02-17T06:17:51.135Z,62.09
2023-02-17T06:22:55.275Z,62.41
2023-02-17T06:27:58.108Z,62.01
2023-02-17T06:33:00.970Z,61.88
2023-02-17T06:38:05.488Z,61.98
2023-02-17T06:43:08.405Z,61.93
2023-02-17T06:48:11.318Z,61.98
2023-02-17T06:53:15.450Z,61.66
2023-02-17T06:58:18.227Z,61.95
2023-02-17T07:03:20.984Z,62.07
2023-02-17T07:08:25.336Z,61.84
2023-02-17T07:13:28.238Z,61.66
2023-02-17T07:18:30.989Z,61.85
2023-02-17T07:23:35.518Z,61.77
2023-02-17T07:28:39.276Z,61.75
2023-02-17T07:33:42.566Z,61.60
2023-02-17T07:38:47.001Z,61.65
2023-02-17T07:43:50.088Z,61.79
2023-02-17T07:48:53.367Z,61.87
2023-02-17T07:53:57.484Z,61.73
2023-02-17T07:59:00.315Z,61.57
2023-02-17T08:04:03.175Z,57.28
2023-02-17T08:09:25.474Z,60.50
2023-02-17T08:14:31.310Z,61.23
2023-02-17T08:19:47.383Z,59.34
2023-02-17T08:24:52.388Z,58.78
2023-02-17T08:29:55.892Z,58.69
2023-02-17T08:34:59.311Z,58.61
2023-02-17T08:40:03.588Z,58.68
2023-02-17T08:45:07.400Z,58.65
2023-02-17T08:50:15.867Z,58.83
2023-02-17T08:55:20.313Z,58.96
2023-02-17T09:00:23.446Z,58.83
2023-02-17T09:05:26.797Z,58.94
2023-02-17T09:10:31.127Z,58.96
2023-02-17T09:15:34.056Z,59.04
2023-02-17T09:20:37.222Z,59.17
2023-02-17T09:25:41.353Z,59.42
2023-02-17T09:30:44.135Z,59.34
2023-02-17T09:35:47.110Z,59.28
2023-02-17T09:40:51.571Z,59.20
2023-02-17T09:46:01.476Z,59.39
2023-02-17T09:51:12.253Z,59.41
2023-02-17T09:56:21.423Z,59.53
2023-02-17T10:01:29.598Z,59.52
2023-02-17T10:06:36.657Z,59.51
2023-02-17T10:11:45.208Z,59.84
2023-02-17T10:16:52.393Z,59.92
2023-02-17T10:22:03.521Z,60.09
2023-02-17T10:27:22.809Z,60.34
2023-02-17T10:32:27.951Z,60.25
2023-02-17T10:37:42.331Z,56.84
2023-02-17T10:42:48.809Z,58.68
2023-02-17T10:47:57.683Z,61.20
2023-02-17T10:53:00.461Z,61.82
2023-02-17T10:58:15.040Z,62.47
2023-02-17T11:03:21.388Z,63.19
2023-02-17T11:08:33.538Z,63.30
2023-02-17T11:13:42.293Z,63.90
2023-02-17T11:18:50.757Z,63.71
2023-02-17T11:23:58.086Z,63.52
2023-02-17T11:29:17.663Z,63.06
2023-02-17T11:34:24.615Z,63.22
2023-02-17T11:39:28.318Z,62.84
2023-02-17T11:44:32.484Z,62.61
2023-02-17T11:49:56.286Z,62.94
2023-02-17T11:55:17.202Z,63.14
2023-02-17T12:00:24.093Z,62.78
2023-02-17T12:05:31.513Z,62.00
2023-02-17T12:10:48.615Z,61.83
2023-02-17T12:16:09.631Z,61.12
2023-02-17T12:21:20.647Z,60.74
2023-02-17T12:26:32.545Z,60.37
2023-02-17T12:31:55.221Z,59.95
2023-02-17T12:36:59.948Z,59.76
2023-02-17T12:42:08.279Z,59.70
2023-02-17T12:47:17.190Z,59.50
2023-02-17T12:52:27.099Z,59.50
2023-02-17T12:57:41.097Z,59.48
2023-02-17T13:02:45.559Z,59.36
2023-02-17T13:07:55.593Z,59.14
2023-02-17T13:13:04.898Z,59.06
2023-02-17T13:18:14.010Z,58.92
2023-02-17T13:23:29.637Z,58.96
2023-02-17T13:28:37.285Z,58.49
2023-02-17T13:33:48.378Z,58.55
2023-02-17T13:38:57.326Z,58.39
2023-02-17T13:44:00.277Z,58.20
2023-02-17T13:49:07.620Z,58.04
2023-02-17T13:54:13.366Z,58.11
2023-02-17T13:59:18.792Z,58.04
2023-02-17T14:04:27.154Z,57.81
2023-02-17T14:09:32.961Z,57.78
2023-02-17T14:14:38.133Z,57.71
2023-02-17T14:19:47.267Z,58.08
2023-02-17T14:24:59.726Z,55.96
2023-02-17T14:30:05.411Z,57.99
2023-02-17T14:35:22.150Z,58.23
2023-02-17T14:40:25.926Z,57.91
2023-02-17T14:45:28.996Z,58.46
2023-02-17T14:50:34.888Z,57.81
2023-02-17T14:55:43.072Z,57.88
2023-02-17T15:00:45.864Z,57.94
2023-02-17T15:05:50.458Z,58.04
2023-02-17T15:10:53.410Z,57.90
2023-02-17T15:15:56.376Z,57.83
2023-02-17T15:21:00.596Z,57.43
2023-02-17T15:26:03.499Z,57.47
2023-02-17T15:31:07.567Z,57.54
2023-02-17T15:36:17.880Z,57.39
2023-02-17T15:41:23.859Z,57.42
2023-02-17T15:46:32.017Z,57.51
2023-02-17T15:51:36.479Z,57.41
2023-02-17T15:56:43.276Z,57.70
2023-02-17T16:01:46.272Z,57.52
2023-02-17T16:06:50.411Z,57.54
2023-02-17T16:11:57.317Z,57.30
2023-02-17T16:17:00.303Z,57.46
2023-02-17T16:22:04.535Z,57.47
2023-02-17T16:27:09.514Z,57.80
2023-02-17T16:32:13.625Z,57.91
2023-02-17T16:37:18.768Z,57.42
2023-02-17T16:42:21.600Z,57.30
2023-02-17T16:47:24.560Z,57.52
2023-02-17T16:52:28.957Z,57.28
2023-02-17T16:57:31.909Z,57.42
2023-02-17T17:02:34.782Z,57.48
2023-02-17T17:07:40.093Z,57.48
2023-02-17T17:12:43.372Z,57.61
2023-02-17T17:17:51.814Z,57.99
2023-02-17T17:22:56.021Z,59.09
2023-02-17T17:27:59.253Z,59.65
2023-02-17T17:33:02.493Z,58.57
2023-02-17T17:38:06.945Z,58.55
2023-02-17T17:43:09.906Z,58.62
2023-02-17T17:48:14.529Z,58.57
2023-02-17T17:53:18.882Z,58.49
2023-02-17T17:58:21.669Z,58.69
2023-02-17T18:03:24.733Z,58.84
2023-02-17T18:08:29.431Z,58.55
2023-02-17T18:13:34.496Z,58.67
2023-02-17T18:18:38.110Z,58.51
2023-02-17T18:23:42.376Z,58.75
2023-02-17T18:28:45.414Z,58.72
2023-02-17T18:33:48.724Z,58.79
2023-02-17T18:38:53.268Z,59.00
2023-02-17T18:43:56.997Z,58.70
2023-02-17T18:49:00.485Z,58.73
2023-02-17T18:54:10.642Z,58.72
2023-02-17T18:59:13.496Z,58.70
2023-02-17T19:04:16.536Z,58.55
2023-02-17T19:09:20.717Z,58.85
2023-02-17T19:14:23.818Z,58.60
2023-02-17T19:19:29.703Z,58.77
2023-02-17T19:24:33.785Z,58.90
2023-02-17T19:29:37.153Z,59.00
2023-02-17T19:34:40.207Z,58.77
2023-02-17T19:39:45.461Z,58.98
2023-02-17T19:44:48.966Z,58.77
2023-02-17T19:49:51.820Z,58.78
2023-02-17T19:54:56.373Z,58.84
2023-02-17T19:59:59.269Z,58.79
2023-02-17T20:05:02.198Z,58.71
2023-02-17T20:10:10.635Z,58.69
2023-02-17T20:15:13.514Z,58.54
2023-02-17T20:20:16.487Z,58.69
2023-02-17T20:25:20.953Z,58.55
2023-02-17T20:30:23.943Z,58.65
2023-02-17T20:35:26.979Z,58.43
2023-02-17T20:40:31.343Z,58.78
2023-02-17T20:45:34.223Z,58.36
2023-02-17T20:50:37.274Z,58.73
2023-02-17T20:55:41.491Z,58.71
2023-02-17T21:00:44.363Z,58.71
2023-02-17T21:05:47.967Z,58.92
2023-02-17T21:10:52.456Z,58.74
2023-02-17T21:15:55.334Z,58.28
2023-02-17T21:20:58.239Z,58.23
2023-02-17T21:26:02.899Z,58.78
2023-02-17T21:31:06.780Z,58.59
2023-02-17T21:36:11.205Z,58.94
2023-02-17T21:41:17.804Z,59.06
2023-02-17T21:46:21.940Z,58.86
2023-02-17T21:51:25.322Z,58.81
2023-02-17T21:56:29.691Z,58.75
2023-02-17T22:01:32.609Z,58.88
2023-02-17T22:06:37.209Z,58.89
2023-02-17T22:11:43.742Z,58.39
2023-02-17T22:16:47.208Z,58.77
2023-02-17T22:21:51.466Z,58.51
2023-02-17T22:26:56.153Z,58.59
2023-02-17T22:31:59.004Z,58.80
2023-02-17T22:37:02.132Z,58.92
2023-02-17T22:42:07.476Z,59.16
2023-02-17T22:47:10.298Z,59.03
2023-02-17T22:52:13.089Z,59.25
2023-02-17T22:57:17.198Z,59.30
2023-02-17T23:02:20.048Z,59.24
2023-02-17T23:07:23.773Z,59.32
2023-02-17T23:12:27.939Z,59.60
2023-02-17T23:17:51.896Z,59.38
2023-02-17T23:22:54.709Z,59.18
2023-02-17T23:27:58.862Z,59.64
2023-02-17T23:33:01.668Z,59.54
2023-02-17T23:38:04.676Z,59.82
2023-02-17T23:43:10.170Z,59.91
2023-02-17T23:48:13.481Z,60.11
2023-02-17T23:53:16.406Z,59.91
2023-02-17T23:58:20.569Z,60.08
